createdAt,value
2023-12-31T00:05:29.912Z,30.40
2023-12-31T00:15:35.671Z,25.50
2023-12-31T00:25:42.909Z,25.10
2023-12-31T00:35:49.744Z,18.40
2023-12-31T00:45:56.607Z,16.10
2023-12-31T00:56:03.576Z,15.70
2023-12-31T01:06:07.275Z,21.40
2023-12-31T01:16:13.219Z,24.50
2023-12-31T01:26:20.174Z,21.40
2023-12-31T01:36:28.139Z,19.70
2023-12-31T01:46:37.153Z,17.60
2023-12-31T02:06:52.210Z,15.70
2023-12-31T02:16:57.932Z,19.90
2023-12-31T02:27:05.472Z,20.70
2023-12-31T02:37:12.596Z,22.60
2023-12-31T02:47:20.444Z,22.70
2023-12-31T02:57:29.739Z,21.60
2023-12-31T03:07:37.303Z,27.40
2023-12-31T03:17:44.373Z,28.50
2023-12-31T03:27:51.892Z,24.20
2023-12-31T03:37:58.909Z,24.30
2023-12-31T03:48:06.909Z,30.30
2023-12-31T03:58:14.002Z,32.90
2023-12-31T04:08:20.958Z,22.30
2023-12-31T04:18:28.018Z,24.30
2023-12-31T04:28:35.182Z,24.80
2023-12-31T04:38:42.050Z,20.40
2023-12-31T04:48:50.301Z,21.50
2023-12-31T04:58:59.959Z,24.20
2023-12-31T05:19:16.195Z,31.20
2023-12-31T05:29:23.288Z,28.10
2023-12-31T05:39:30.097Z,31.40
2023-12-31T05:49:35.534Z,29.30
2023-12-31T05:59:42.697Z,29.30
2023-12-31T06:09:49.520Z,27.40
2023-12-31T06:19:56.695Z,25.30
2023-12-31T06:30:04.302Z,30.60
2023-12-31T06:40:13.100Z,30.10
2023-12-31T06:50:20.447Z,32.60
2023-12-31T07:00:27.739Z,36.40
2023-12-31T07:10:34.924Z,35.70
2023-12-31T07:20:42.757Z,37.60
2023-12-31T07:30:49.994Z,43.70
2023-12-31T07:40:55.687Z,36.10
2023-12-31T07:51:02.721Z,31.20
2023-12-31T08:01:10.368Z,30.00
2023-12-31T08:11:17.852Z,29.30
2023-12-31T08:21:24.725Z,27.70
2023-12-31T08:31:32.359Z,34.60
2023-12-31T08:41:39.441Z,36.40
2023-12-31T08:51:46.388Z,27.30
2023-12-31T09:01:53.258Z,31.40
2023-12-31T09:12:00.376Z,34.70
2023-12-31T09:22:07.978Z,38.60
2023-12-31T09:32:15.015Z,37.00
2023-12-31T09:42:21.750Z,34.30
2023-12-31T09:52:31.967Z,32.60
2023-12-31T10:02:37.728Z,39.60
2023-12-31T10:12:43.640Z,32.30
2023-12-31T10:22:48.109Z,29.50
2023-12-31T10:32:55.796Z,28.00
2023-12-31T10:43:07.065Z,23.70
2023-12-31T10:53:12.406Z,29.50
2023-12-31T11:03:20.133Z,26.50
2023-12-31T11:13:29.415Z,24.20
2023-12-31T11:23:36.591Z,25.00
2023-12-31T11:33:42.191Z,24.90
2023-12-31T11:43:50.042Z,20.30
2023-12-31T11:54:00.336Z,22.80
2023-12-31T12:04:07.726Z,22.80
2023-12-31T12:14:14.192Z,22.20
2023-12-31T12:24:20.558Z,20.80
2023-12-31T12:34:28.504Z,20.10
2023-12-31T12:44:35.898Z,22.70
2023-12-31T12:54:43.369Z,21.80
2023-12-31T13:04:50.779Z,23.00
2023-12-31T13:14:56.258Z,16.10
2023-12-31T13:25:02.094Z,18.50
2023-12-31T13:35:08.524Z,19.50
2023-12-31T13:45:15.890Z,18.20
2023-12-31T13:55:22.835Z,14.10
2023-12-31T14:05:27.574Z,16.90
2023-12-31T14:15:35.426Z,19.50
2023-12-31T14:25:40.814Z,20.90
2023-12-31T14:35:47.132Z,18.20
2023-12-31T14:45:54.511Z,15.30
2023-12-31T14:56:01.896Z,16.60
2023-12-31T15:06:08.150Z,25.60
2023-12-31T15:16:14.042Z,31.40
2023-12-31T15:26:20.908Z,31.60
2023-12-31T15:36:26.919Z,38.90
2023-12-31T15:46:34.093Z,30.70
2023-12-31T15:56:41.776Z,26.90
2023-12-31T16:06:48.667Z,24.00
2023-12-31T16:16:55.796Z,24.10
2023-12-31T16:27:01.495Z,28.70
2023-12-31T16:37:07.673Z,36.80
2023-12-31T16:47:12.427Z,26.30
2023-12-31T16:57:17.566Z,28.20
2023-12-31T17:17:29.006Z,56.60
2023-12-31T17:27:36.605Z,54.40
2023-12-31T17:37:43.924Z,44.00
2023-12-31T17:47:51.201Z,43.10
2023-12-31T17:57:57.006Z,62.40
2023-12-31T18:08:05.602Z,61.30
2023-12-31T18:18:12.911Z,67.00
2023-12-31T18:28:18.035Z,64.90
2023-12-31T18:38:26.216Z,53.40
2023-12-31T18:48:33.277Z,52.80
2023-12-31T18:58:40.824Z,52.70
2023-12-31T19:08:47.282Z,72.00
2023-12-31T19:18:53.802Z,69.70
2023-12-31T19:29:01.255Z,74.20
2023-12-31T19:39:09.275Z,60.00
2023-12-31T19:49:16.067Z,52.20
2023-12-31T19:59:22.964Z,50.40
2023-12-31T20:09:30.152Z,55.40
2023-12-31T20:19:35.796Z,60.00
2023-12-31T20:29:41.217Z,55.90
2023-12-31T20:39:47.965Z,38.30
2023-12-31T20:49:54.927Z,42.20
2023-12-31T21:00:01.307Z,40.20
2023-12-31T21:10:10.017Z,27.70
2023-12-31T21:20:16.475Z,38.70
2023-12-31T21:30:23.495Z,34.40
2023-12-31T21:40:29.620Z,35.30
2023-12-31T21:50:36.194Z,35.40
2023-12-31T22:00:43.108Z,39.10
2023-12-31T22:10:48.779Z,38.60
2023-12-31T22:20:55.741Z,36.10
2023-12-31T22:31:02.707Z,51.60
2023-12-31T22:41:09.692Z,47.50
2023-12-31T22:51:17.841Z,41.60
2023-12-31T23:01:28.981Z,37.80
2023-12-31T23:11:35.880Z,83.80
2023-12-31T23:21:43.072Z,68.00
2023-12-31T23:31:49.952Z,64.90
2023-12-31T23:41:57.009Z,58.70
2023-12-31T23:52:04.106Z,66.80
